createdAt,value
2023-07-25T00:01:10.324Z,1.50
2023-07-25T00:03:37.285Z,1.52
2023-07-25T00:06:04.825Z,1.73
2023-07-25T00:08:33.159Z,1.50
2023-07-25T00:11:01.103Z,1.85
2023-07-25T00:13:28.092Z,1.63
2023-07-25T00:15:55.102Z,1.88
2023-07-25T00:18:21.940Z,1.75
2023-07-25T00:20:48.982Z,1.85
2023-07-25T00:23:15.830Z,1.30
2023-07-25T00:25:42.920Z,1.90
2023-07-25T00:28:09.685Z,1.70
2023-07-25T00:30:36.506Z,1.80
2023-07-25T00:33:03.347Z,1.77
2023-07-25T00:35:30.149Z,2.10
2023-07-25T00:37:56.917Z,1.90
2023-07-25T00:40:23.695Z,1.92
2023-07-25T00:42:57.033Z,1.85
2023-07-25T00:45:25.272Z,2.22
2023-07-25T00:47:53.471Z,1.70
2023-07-25T00:50:20.371Z,2.00
2023-07-25T00:52:47.817Z,2.05
2023-07-25T00:55:15.011Z,1.88
2023-07-25T00:57:41.882Z,2.10
2023-07-25T01:00:09.225Z,2.00
2023-07-25T01:02:36.197Z,1.63
2023-07-25T01:05:03.134Z,2.10
2023-07-25T01:07:32.577Z,1.85
2023-07-25T01:09:59.431Z,1.70
2023-07-25T01:12:26.346Z,1.70
2023-07-25T01:14:53.348Z,2.25
2023-07-25T01:17:23.481Z,2.20
2023-07-25T01:19:51.061Z,1.70
2023-07-25T01:22:18.491Z,1.85
2023-07-25T01:24:47.820Z,1.80
2023-07-25T01:27:16.224Z,1.92
2023-07-25T01:29:43.780Z,1.90
2023-07-25T01:32:11.485Z,1.70
2023-07-25T01:34:39.445Z,2.00
2023-07-25T01:37:07.882Z,2.00
2023-07-25T01:39:34.994Z,2.00
2023-07-25T01:42:02.094Z,2.00
2023-07-25T01:44:28.917Z,2.55
2023-07-25T01:46:58.755Z,2.00
2023-07-25T01:49:25.575Z,2.00
2023-07-25T01:51:52.606Z,2.60
2023-07-25T01:54:19.443Z,2.08
2023-07-25T01:56:51.286Z,2.75
2023-07-25T02:01:45.734Z,2.08
2023-07-25T02:04:12.710Z,2.35
2023-07-25T02:06:39.516Z,2.40
2023-07-25T02:09:06.282Z,2.53
2023-07-25T02:11:33.312Z,2.40
2023-07-25T02:14:00.315Z,2.40
2023-07-25T02:16:27.184Z,2.40
2023-07-25T02:18:54.077Z,2.30
2023-07-25T02:21:20.879Z,2.22
2023-07-25T02:23:47.663Z,2.40
2023-07-25T02:26:14.574Z,2.20
2023-07-25T02:28:41.419Z,2.72
2023-07-25T02:31:08.246Z,2.58
2023-07-25T02:33:35.087Z,2.80
2023-07-25T02:36:01.940Z,2.40
2023-07-25T02:38:28.835Z,2.45
2023-07-25T02:40:55.644Z,2.63
2023-07-25T02:43:25.254Z,2.20
2023-07-25T02:45:52.883Z,2.42
2023-07-25T02:48:19.754Z,2.25
2023-07-25T02:50:46.800Z,2.47
2023-07-25T02:53:13.623Z,2.63
2023-07-25T02:55:40.532Z,2.33
2023-07-25T02:58:07.402Z,2.45
2023-07-25T03:00:34.213Z,2.58
2023-07-25T03:03:01.079Z,3.17
2023-07-25T03:05:28.896Z,2.88
2023-07-25T03:07:59.310Z,2.67
2023-07-25T03:10:26.140Z,2.63
2023-07-25T03:12:53.910Z,2.60
2023-07-25T03:15:21.401Z,2.55
2023-07-25T03:17:48.476Z,3.15
2023-07-25T03:20:15.317Z,3.13
2023-07-25T03:22:42.576Z,2.50
2023-07-25T03:25:10.065Z,3.03
2023-07-25T03:27:37.391Z,2.70
2023-07-25T03:30:05.277Z,2.67
2023-07-25T03:32:32.173Z,2.63
2023-07-25T03:34:59.035Z,2.60
2023-07-25T03:37:25.795Z,2.13
2023-07-25T03:39:52.810Z,2.65
2023-07-25T03:42:19.754Z,2.35
2023-07-25T03:44:46.594Z,2.95
2023-07-25T03:47:13.390Z,2.50
2023-07-25T03:49:40.278Z,2.42
2023-07-25T03:52:07.526Z,2.55
2023-07-25T03:54:34.365Z,2.90
2023-07-25T03:57:02.623Z,2.60
2023-07-25T04:22:48.955Z,2.67
2023-07-25T04:25:15.897Z,2.92
2023-07-25T04:27:43.887Z,3.35
2023-07-25T04:30:11.452Z,3.20
2023-07-25T04:32:38.400Z,3.40
2023-07-25T04:35:05.730Z,3.55
2023-07-25T04:37:32.524Z,2.90
2023-07-25T04:39:59.338Z,3.50
2023-07-25T04:42:26.210Z,2.95
2023-07-25T04:44:52.991Z,3.05
2023-07-25T04:47:19.831Z,3.22
2023-07-25T04:49:46.712Z,2.92
2023-07-25T04:52:13.472Z,3.15
2023-07-25T04:54:40.253Z,3.05
2023-07-25T04:57:07.302Z,3.50
2023-07-25T04:59:34.170Z,3.50
2023-07-25T05:02:00.936Z,3.58
2023-07-25T05:04:27.825Z,3.30
2023-07-25T05:06:55.303Z,3.58
2023-07-25T05:09:22.296Z,3.40
2023-07-25T05:11:52.082Z,3.60
2023-07-25T05:14:19.355Z,3.60
2023-07-25T05:16:46.203Z,3.85
2023-07-25T05:19:12.997Z,3.72
2023-07-25T05:21:39.784Z,3.70
2023-07-25T05:24:06.872Z,3.20
2023-07-25T05:26:33.669Z,3.75
2023-07-25T05:29:00.592Z,3.50
2023-07-25T05:31:27.484Z,4.15
2023-07-25T05:33:54.378Z,3.78
2023-07-25T05:36:21.165Z,3.70
2023-07-25T05:38:47.934Z,3.85
2023-07-25T05:41:14.694Z,4.03
2023-07-25T05:43:41.525Z,3.70
2023-07-25T05:46:09.588Z,4.40
2023-07-25T05:48:36.640Z,4.60
2023-07-25T05:51:03.524Z,4.43
2023-07-25T05:53:30.501Z,4.60
2023-07-25T05:55:57.279Z,3.95
2023-07-25T05:58:24.130Z,3.60
2023-07-25T06:00:51.052Z,4.22
2023-07-25T06:03:18.209Z,3.72
2023-07-25T06:05:45.078Z,3.67
2023-07-25T06:08:11.883Z,3.97
2023-07-25T06:10:40.098Z,4.22
2023-07-25T06:13:07.834Z,4.03
2023-07-25T06:15:35.416Z,3.92
2023-07-25T06:18:04.374Z,3.42
2023-07-25T06:20:34.600Z,3.40
2023-07-25T06:23:02.671Z,3.45
2023-07-25T06:25:29.880Z,3.30
2023-07-25T06:27:56.782Z,3.17
2023-07-25T06:30:23.704Z,2.80
2023-07-25T06:32:53.720Z,3.22
2023-07-25T06:35:23.168Z,2.88
2023-07-25T06:37:50.200Z,2.80
2023-07-25T06:40:17.160Z,2.70
2023-07-25T06:42:43.968Z,2.75
2023-07-25T06:45:10.988Z,2.88
2023-07-25T06:47:37.852Z,3.05
2023-07-25T06:50:05.574Z,2.20
2023-07-25T06:52:32.516Z,2.05
2023-07-25T06:54:59.307Z,2.15
2023-07-25T06:57:26.075Z,2.50
2023-07-25T06:59:52.941Z,2.55
2023-07-25T07:02:19.743Z,2.25
2023-07-25T07:04:46.916Z,2.33
2023-07-25T07:07:13.784Z,2.22
2023-07-25T07:09:40.565Z,1.80
2023-07-25T07:12:08.232Z,2.15
2023-07-25T07:14:35.091Z,2.03
2023-07-25T07:17:01.965Z,1.50
2023-07-25T07:19:28.768Z,1.90
2023-07-25T07:21:55.566Z,1.60
2023-07-25T07:24:22.513Z,1.80
2023-07-25T07:26:49.304Z,1.70
2023-07-25T07:29:16.119Z,1.50
2023-07-25T07:31:42.909Z,1.30
2023-07-25T07:34:16.983Z,1.40
2023-07-25T07:36:45.229Z,1.70
2023-07-25T07:39:12.435Z,1.10
2023-07-25T07:41:39.229Z,1.10
2023-07-25T07:44:06.326Z,1.20
2023-07-25T07:46:34.942Z,1.33
2023-07-25T07:49:01.923Z,1.13
2023-07-25T07:51:29.053Z,1.13
2023-07-25T07:53:56.019Z,1.10
2023-07-25T07:56:22.862Z,0.93
2023-07-25T07:58:49.624Z,1.30
2023-07-25T08:01:24.967Z,1.20
2023-07-25T08:03:51.834Z,1.38
2023-07-25T08:06:18.624Z,1.27
2023-07-25T08:08:45.485Z,1.20
2023-07-25T08:11:12.496Z,1.20
2023-07-25T08:13:39.334Z,1.20
2023-07-25T08:16:06.627Z,1.35
2023-07-25T08:18:33.534Z,1.13
2023-07-25T08:21:02.424Z,1.10
2023-07-25T08:23:29.492Z,1.50
2023-07-25T08:25:57.412Z,1.00
2023-07-25T08:28:24.999Z,1.30
2023-07-25T08:31:08.051Z,1.02
2023-07-25T08:33:37.994Z,1.17
2023-07-25T08:36:05.161Z,1.30
2023-07-25T08:38:32.252Z,1.67
2023-07-25T08:41:08.828Z,1.50
2023-07-25T08:43:39.726Z,1.30
2023-07-25T08:46:11.743Z,1.33
2023-07-25T08:48:42.380Z,1.33
2023-07-25T08:51:35.034Z,1.57
2023-07-25T08:54:34.766Z,1.35
2023-07-25T08:57:02.907Z,1.35
2023-07-25T08:59:31.925Z,1.40
2023-07-25T09:01:59.482Z,1.58
2023-07-25T09:04:27.795Z,1.00
2023-07-25T09:06:54.979Z,1.23
2023-07-25T09:09:22.409Z,0.93
2023-07-25T09:11:49.303Z,1.10
2023-07-25T09:14:16.206Z,1.30
2023-07-25T09:16:43.158Z,1.30
2023-07-25T09:19:10.441Z,1.40
2023-07-25T09:21:48.715Z,1.40
2023-07-25T09:24:15.955Z,1.70
2023-07-25T09:26:50.682Z,1.40
2023-07-25T09:29:25.514Z,1.20
2023-07-25T09:31:52.404Z,1.20
2023-07-25T09:34:24.277Z,1.10
2023-07-25T09:36:51.358Z,1.08
2023-07-25T09:39:18.602Z,1.30
2023-07-25T09:41:46.699Z,1.55
2023-07-25T09:44:14.010Z,1.10
2023-07-25T09:46:51.432Z,1.33
2023-07-25T09:49:22.681Z,1.58
2023-07-25T09:54:27.548Z,0.80
2023-07-25T09:56:54.887Z,1.10
2023-07-25T09:59:23.593Z,1.05
2023-07-25T10:01:52.174Z,1.00
2023-07-25T10:04:19.460Z,1.00
2023-07-25T10:06:47.138Z,1.17
2023-07-25T10:09:14.977Z,1.30
2023-07-25T10:11:42.800Z,1.00
2023-07-25T10:14:10.485Z,1.00
2023-07-25T10:16:38.657Z,1.08
2023-07-25T10:19:07.029Z,1.30
2023-07-25T10:21:54.538Z,1.20
2023-07-25T10:24:22.526Z,1.05
2023-07-25T10:27:00.400Z,1.10
2023-07-25T10:29:44.194Z,1.35
2023-07-25T10:32:21.988Z,1.52
2023-07-25T10:35:05.550Z,1.23
2023-07-25T10:37:42.670Z,1.30
2023-07-25T10:40:24.349Z,1.35
2023-07-25T10:45:28.140Z,1.30
2023-07-25T10:48:02.334Z,1.10
2023-07-25T10:50:50.998Z,1.20
2023-07-25T10:53:23.670Z,1.23
2023-07-25T10:56:09.220Z,1.25
2023-07-25T10:58:40.715Z,1.35
2023-07-25T11:01:32.546Z,1.45
2023-07-25T11:04:30.989Z,1.60
2023-07-25T11:07:11.570Z,1.58
2023-07-25T11:09:43.693Z,1.33
2023-07-25T11:12:12.080Z,1.27
2023-07-25T11:14:46.076Z,1.10
2023-07-25T11:17:13.970Z,1.52
2023-07-25T11:19:40.906Z,1.35
2023-07-25T11:22:14.360Z,1.17
2023-07-25T11:24:46.724Z,1.50
2023-07-25T11:27:15.099Z,1.88
2023-07-25T11:29:42.440Z,1.58
2023-07-25T11:32:10.009Z,1.48
2023-07-25T11:34:36.817Z,1.33
2023-07-25T11:37:12.550Z,1.75
2023-07-25T11:39:39.363Z,1.55
2023-07-25T11:42:09.337Z,1.65
2023-07-25T11:44:36.406Z,1.27
2023-07-25T11:47:03.567Z,1.30
2023-07-25T11:49:47.619Z,1.52
2023-07-25T11:52:16.826Z,1.48
2023-07-25T11:54:43.728Z,1.45
2023-07-25T11:57:12.112Z,1.10
2023-07-25T11:59:42.772Z,1.17
2023-07-25T12:02:12.087Z,1.20
2023-07-25T12:04:45.657Z,1.20
2023-07-25T12:07:14.349Z,0.90
2023-07-25T12:09:50.544Z,1.25
2023-07-25T12:12:17.362Z,1.10
2023-07-25T12:15:00.864Z,1.10
2023-07-25T12:17:46.425Z,1.40
2023-07-25T12:20:21.212Z,1.17
2023-07-25T12:22:48.438Z,0.90
2023-07-25T12:25:19.744Z,0.90
2023-07-25T12:27:50.447Z,1.52
2023-07-25T12:30:17.659Z,1.10
2023-07-25T12:32:44.543Z,1.40
2023-07-25T12:35:12.741Z,1.10
2023-07-25T12:37:39.634Z,1.20
2023-07-25T12:40:07.271Z,1.30
2023-07-25T12:42:34.042Z,1.38
2023-07-25T12:45:07.809Z,1.27
2023-07-25T12:47:37.528Z,1.30
2023-07-25T12:50:04.759Z,1.10
2023-07-25T12:52:31.522Z,1.10
2023-07-25T12:54:58.279Z,1.30
2023-07-25T12:57:25.065Z,1.08
2023-07-25T12:59:51.882Z,1.10
2023-07-25T13:02:18.782Z,1.10
2023-07-25T13:04:45.601Z,1.00
2023-07-25T13:07:12.749Z,1.20
2023-07-25T13:09:39.540Z,1.20
2023-07-25T13:12:06.889Z,1.20
2023-07-25T13:14:33.725Z,1.17
2023-07-25T13:17:00.508Z,1.00
2023-07-25T13:19:27.345Z,0.90
2023-07-25T13:21:54.150Z,0.95
2023-07-25T13:24:20.948Z,1.08
2023-07-25T13:26:47.781Z,0.70
2023-07-25T13:29:14.639Z,0.80
2023-07-25T13:31:41.632Z,0.70
2023-07-25T13:34:08.526Z,0.70
2023-07-25T13:36:35.375Z,1.20
2023-07-25T13:39:02.160Z,0.63
2023-07-25T13:41:29.065Z,0.63
2023-07-25T13:43:55.882Z,0.75
2023-07-25T13:46:22.805Z,0.57
2023-07-25T13:48:50.054Z,0.70
2023-07-25T13:51:16.845Z,0.82
2023-07-25T13:53:43.623Z,0.50
2023-07-25T13:56:10.457Z,0.90
2023-07-25T13:58:37.281Z,0.70
2023-07-25T14:01:04.172Z,0.68
2023-07-25T14:03:31.751Z,0.80
2023-07-25T14:05:58.635Z,0.70
2023-07-25T14:08:25.397Z,0.80
2023-07-25T14:10:52.308Z,0.77
2023-07-25T14:13:19.081Z,0.60
2023-07-25T14:15:45.919Z,0.73
2023-07-25T14:18:12.736Z,0.50
2023-07-25T14:20:39.601Z,0.80
2023-07-25T14:23:06.404Z,0.60
2023-07-25T14:25:33.439Z,0.40
2023-07-25T14:28:00.285Z,0.68
2023-07-25T14:30:27.162Z,0.47
2023-07-25T14:32:54.042Z,0.55
2023-07-25T14:35:20.941Z,0.40
2023-07-25T14:40:17.610Z,0.60
2023-07-25T14:42:45.171Z,0.40
2023-07-25T14:45:12.420Z,0.60
2023-07-25T14:47:39.648Z,0.30
2023-07-25T14:50:07.078Z,0.60
2023-07-25T14:52:33.863Z,0.50
2023-07-25T14:55:00.630Z,0.40
2023-07-25T14:57:27.513Z,0.47
2023-07-25T14:59:54.265Z,0.40
2023-07-25T15:02:21.057Z,0.50
2023-07-25T15:04:47.859Z,0.65
2023-07-25T15:07:14.703Z,0.55
2023-07-25T15:09:41.479Z,0.55
2023-07-25T15:12:08.451Z,0.50
2023-07-25T15:14:35.211Z,0.50
2023-07-25T15:17:02.092Z,0.63
2023-07-25T15:19:28.932Z,0.40
2023-07-25T15:21:55.689Z,0.55
2023-07-25T15:24:22.583Z,0.30
2023-07-25T15:26:50.574Z,0.40
2023-07-25T15:29:17.342Z,0.40
2023-07-25T15:31:44.118Z,0.70
2023-07-25T15:34:10.896Z,0.50
2023-07-25T15:36:37.821Z,0.40
2023-07-25T15:39:04.578Z,0.45
2023-07-25T15:41:31.735Z,0.40
2023-07-25T15:43:58.761Z,0.50
2023-07-25T15:46:25.526Z,0.40
2023-07-25T15:48:52.288Z,0.50
2023-07-25T15:51:20.217Z,0.63
2023-07-25T15:53:46.997Z,0.50
2023-07-25T15:56:13.778Z,0.73
2023-07-25T15:58:40.584Z,0.73
2023-07-25T16:01:07.766Z,0.70
2023-07-25T16:03:34.672Z,0.65
2023-07-25T16:06:01.491Z,0.80
2023-07-25T16:08:28.269Z,0.60
2023-07-25T16:10:55.092Z,0.80
2023-07-25T16:13:21.899Z,0.90
2023-07-25T16:15:48.727Z,0.80
2023-07-25T16:18:15.895Z,0.55
2023-07-25T16:20:42.850Z,0.57
2023-07-25T16:23:09.886Z,0.82
2023-07-25T16:25:36.661Z,0.63
2023-07-25T16:28:03.433Z,0.90
2023-07-25T16:30:30.743Z,0.60
2023-07-25T16:32:57.568Z,0.88
2023-07-25T16:35:24.350Z,0.90
2023-07-25T16:37:51.118Z,0.60
2023-07-25T16:40:18.035Z,0.47
2023-07-25T16:42:44.791Z,0.50
2023-07-25T16:45:11.625Z,0.70
2023-07-25T16:47:38.505Z,0.50
2023-07-25T16:50:06.529Z,0.50
2023-07-25T16:52:35.542Z,0.55
2023-07-25T16:55:06.736Z,0.60
2023-07-25T16:57:33.689Z,0.68
2023-07-25T17:00:00.450Z,0.70
2023-07-25T17:02:27.473Z,0.57
2023-07-25T17:04:56.058Z,0.80
2023-07-25T17:07:22.872Z,0.80
2023-07-25T17:09:49.705Z,0.68
2023-07-25T17:12:16.534Z,0.70
2023-07-25T17:14:43.335Z,0.68
2023-07-25T17:17:12.187Z,0.60
2023-07-25T17:19:40.368Z,0.50
2023-07-25T17:22:07.410Z,0.60
2023-07-25T17:24:35.694Z,0.40
2023-07-25T17:27:02.817Z,0.55
2023-07-25T17:29:29.562Z,0.50
2023-07-25T17:31:56.389Z,0.50
2023-07-25T17:34:23.803Z,0.60
2023-07-25T17:36:50.628Z,0.50
2023-07-25T17:39:18.306Z,0.40
2023-07-25T17:41:45.061Z,0.43
2023-07-25T17:44:11.829Z,0.60
2023-07-25T17:46:38.617Z,0.90
2023-07-25T17:49:05.510Z,0.35
2023-07-25T17:51:32.559Z,0.45
2023-07-25T17:53:59.547Z,0.45
2023-07-25T17:56:26.323Z,0.50
2023-07-25T17:58:53.128Z,0.30
2023-07-25T18:01:19.895Z,0.40
2023-07-25T18:03:46.749Z,0.50
2023-07-25T18:06:15.105Z,0.40
2023-07-25T18:08:42.002Z,0.38
2023-07-25T18:11:08.909Z,0.43
2023-07-25T18:13:35.786Z,0.40
2023-07-25T18:16:02.751Z,0.40
2023-07-25T18:18:29.655Z,0.40
2023-07-25T18:20:56.477Z,0.30
2023-07-25T18:23:25.229Z,0.40
2023-07-25T18:25:52.260Z,0.60
2023-07-25T18:28:21.226Z,0.50
2023-07-25T18:30:48.023Z,0.43
2023-07-25T18:33:15.499Z,0.43
2023-07-25T18:35:42.351Z,0.80
2023-07-25T18:38:09.852Z,0.70
2023-07-25T18:40:37.331Z,0.50
2023-07-25T18:43:07.407Z,0.70
2023-07-25T18:45:34.162Z,0.80
2023-07-25T18:48:00.998Z,0.57
2023-07-25T18:50:28.322Z,0.70
2023-07-25T18:52:55.260Z,0.57
2023-07-25T18:55:22.033Z,0.60
2023-07-25T18:57:48.884Z,0.60
2023-07-25T19:00:15.983Z,0.60
2023-07-25T19:02:42.918Z,0.40
2023-07-25T19:05:10.082Z,0.75
2023-07-25T19:07:36.867Z,0.50
2023-07-25T19:10:04.209Z,0.52
2023-07-25T19:12:30.986Z,0.80
2023-07-25T19:14:57.716Z,0.80
2023-07-25T19:17:24.579Z,0.70
2023-07-25T19:19:51.356Z,0.32
2023-07-25T19:22:18.400Z,0.60
2023-07-25T19:24:45.838Z,0.82
2023-07-25T19:27:12.733Z,0.80
2023-07-25T19:29:39.625Z,0.55
2023-07-25T19:32:07.338Z,0.63
2023-07-25T19:34:37.083Z,0.70
2023-07-25T19:37:04.692Z,0.43
2023-07-25T19:39:35.287Z,0.80
2023-07-25T19:42:02.966Z,0.57
2023-07-25T19:44:29.782Z,0.70
2023-07-25T19:46:56.611Z,0.88
2023-07-25T19:49:23.396Z,0.60
2023-07-25T19:51:50.193Z,0.70
2023-07-25T19:54:17.032Z,0.50
2023-07-25T19:56:43.984Z,0.60
2023-07-25T19:59:10.797Z,0.70
2023-07-25T20:01:37.598Z,0.63
2023-07-25T20:04:04.344Z,0.73
2023-07-25T20:06:31.454Z,0.70
2023-07-25T20:09:00.012Z,0.70
2023-07-25T20:11:28.344Z,1.00
2023-07-25T20:13:55.093Z,0.68
2023-07-25T20:16:21.899Z,0.70
2023-07-25T20:18:48.717Z,0.75
2023-07-25T20:21:15.502Z,0.70
2023-07-25T20:23:42.585Z,0.68
2023-07-25T20:26:09.427Z,0.80
2023-07-25T20:28:36.282Z,0.73
2023-07-25T20:31:03.049Z,0.88
2023-07-25T20:33:29.850Z,0.90
2023-07-25T20:35:56.627Z,0.80
2023-07-25T20:38:23.393Z,0.80
2023-07-25T20:40:50.402Z,0.80
2023-07-25T20:43:17.154Z,0.73
2023-07-25T20:45:44.016Z,0.77
2023-07-25T20:48:10.886Z,0.95
2023-07-25T20:50:37.670Z,1.10
2023-07-25T20:53:04.759Z,0.82
2023-07-25T20:55:31.598Z,0.70
2023-07-25T20:57:58.381Z,0.90
2023-07-25T21:00:25.370Z,0.70
2023-07-25T21:02:52.293Z,0.93
2023-07-25T21:05:19.407Z,0.80
2023-07-25T21:07:46.302Z,0.95
2023-07-25T21:10:13.079Z,1.10
2023-07-25T21:12:39.849Z,0.75
2023-07-25T21:15:08.511Z,0.90
2023-07-25T21:17:35.648Z,0.98
2023-07-25T21:20:04.606Z,0.85
2023-07-25T21:22:31.446Z,0.80
2023-07-25T21:24:58.391Z,1.35
2023-07-25T21:27:25.211Z,1.10
2023-07-25T21:29:52.064Z,1.00
2023-07-25T21:32:18.868Z,1.55
2023-07-25T21:34:45.641Z,1.20
2023-07-25T21:37:12.588Z,0.93
2023-07-25T21:39:39.353Z,1.00
2023-07-25T21:42:06.448Z,1.10
2023-07-25T21:44:36.268Z,1.10
2023-07-25T21:47:03.159Z,1.10
2023-07-25T21:49:29.981Z,1.00
2023-07-25T21:51:56.815Z,1.10
2023-07-25T21:54:23.619Z,1.00
2023-07-25T21:56:51.247Z,1.13
2023-07-25T21:59:18.472Z,1.05
2023-07-25T22:01:45.314Z,1.00
2023-07-25T22:04:12.166Z,1.20
2023-07-25T22:06:39.010Z,1.10
2023-07-25T22:09:05.813Z,1.20
2023-07-25T22:11:32.657Z,1.15
2023-07-25T22:13:59.533Z,1.30
2023-07-25T22:16:26.461Z,1.67
2023-07-25T22:18:53.270Z,1.10
2023-07-25T22:21:20.122Z,1.35
2023-07-25T22:23:47.066Z,1.10
2023-07-25T22:26:13.878Z,1.13
2023-07-25T22:28:40.810Z,1.08
2023-07-25T22:31:07.653Z,1.23
2023-07-25T22:33:34.500Z,1.08
2023-07-25T22:36:01.310Z,0.93
2023-07-25T22:38:28.062Z,1.10
2023-07-25T22:40:54.876Z,1.15
2023-07-25T22:43:21.630Z,1.20
2023-07-25T22:45:48.428Z,1.13
2023-07-25T22:48:15.221Z,1.27
2023-07-25T22:50:41.999Z,1.20
2023-07-25T22:53:08.824Z,1.10
2023-07-25T22:55:35.596Z,1.10
2023-07-25T22:58:02.357Z,1.10
2023-07-25T23:00:29.130Z,1.20
2023-07-25T23:02:55.979Z,1.10
2023-07-25T23:05:22.820Z,1.27
2023-07-25T23:07:49.627Z,1.17
2023-07-25T23:10:16.571Z,1.40
2023-07-25T23:12:43.416Z,1.10
2023-07-25T23:15:12.207Z,1.48
2023-07-25T23:17:39.030Z,1.30
2023-07-25T23:20:07.396Z,1.20
2023-07-25T23:22:34.329Z,1.55
2023-07-25T23:25:01.950Z,1.60
2023-07-25T23:27:28.920Z,1.58
2023-07-25T23:29:55.704Z,1.50
2023-07-25T23:32:22.630Z,1.30
2023-07-25T23:34:51.749Z,1.50
2023-07-25T23:37:18.604Z,1.50
2023-07-25T23:39:45.369Z,1.30
2023-07-25T23:42:12.676Z,1.30
2023-07-25T23:44:39.792Z,1.40
2023-07-25T23:47:07.320Z,1.50
2023-07-25T23:49:34.738Z,1.50
2023-07-25T23:52:03.046Z,1.40
2023-07-25T23:54:29.809Z,1.48
2023-07-25T23:56:56.614Z,1.60
2023-07-25T23:59:23.391Z,1.77
